| time (UTC) | temp C | wind direction | speed KPH | gust KPH | rain 1hr cm | rain 24hr cm | rain mn cm | humidity % | barometer mb |
| 20260507173348 | 14 | 355 | 11.3 | 27.4 | 0.03 | 0.97 | 0.03 | 57 | 1002.4 |
| 20260507171852 | 14 | 360 | 14.5 | 24.1 | 0.03 | 0.97 | 0.03 | 57 | 1002.6 |
| 20260507170353 | 13 | 330 | 16.1 | 19.3 | 0.03 | 0.97 | 0.03 | 59 | 1002.5 |
| 20260507164900 | 13 | 355 | 11.3 | 20.9 | 0.03 | 0.97 | 0.03 | 61 | 1002.7 |
| 20260507163345 | 13 | 317 | 12.9 | 20.9 | 0.00 | 0.94 | 0.00 | 61 | 1002.9 |
| 20260507161847 | 12 | 329 | 9.7 | 20.9 | 0.00 | 0.94 | 0.00 | 66 | 1003.2 |
| 20260507160355 | 12 | 325 | 8.0 | 20.9 | 0.00 | 0.94 | 0.00 | 66 | 1003.4 |
| 20260507154859 | 12 | 269 | 11.3 | 19.3 | 0.00 | 0.94 | 0.00 | 71 | 1003.5 |
| 20260507153344 | 12 | 304 | 16.1 | 22.5 | 0.00 | 0.94 | 0.00 | 70 | 1003.6 |
| 20260507151849 | 11 | 5 | 9.7 | 22.5 | 0.00 | 0.94 | 0.00 | 75 | 1003.8 |
| 20260507150411 | 11 | 36 | 16.1 | 22.5 | 0.00 | 0.94 | 0.00 | 74 | 1003.8 |
| 20260507144854 | 11 | 330 | 11.3 | 17.7 | 0.00 | 0.94 | 0.00 | 71 | 1004.1 |
| 20260507143343 | 10 | 330 | 11.3 | 19.3 | 0.00 | 0.94 | 0.00 | 72 | 1004.2 |
| 20260507141906 | 10 | 344 | 8.0 | 20.9 | 0.00 | 0.94 | 0.00 | 70 | 1004.4 |
| 20260507140349 | 10 | 5 | 9.7 | 19.3 | 0.00 | 0.94 | 0.00 | 56 | 1004.7 |
| 20260507134852 | 10 | 31 | 11.3 | 24.1 | 0.00 | 0.94 | 0.00 | 49 | 1004.5 |
| 20260507133340 | 9 | 346 | 9.7 | 14.5 | 0.00 | 0.94 | 0.00 | 31 | 1004.5 |
| 20260507131845 | 9 | 309 | 11.3 | 17.7 | 0.00 | 0.94 | 0.00 | 18 | 1004.6 |
| 20260507130348 | 8 | 309 | 6.4 | 16.1 | 0.00 | 0.94 | 0.00 | 3 | 1004.4 |
| 20260507124857 | 8 | 355 | 8.0 | 16.1 | 0.00 | 0.94 | 0.00 | 1 | 1004.1 |
| 20260507123400 | 8 | 5 | 11.3 | 17.7 | 0.00 | 0.94 | 0.00 | 1 | 1004.4 |
| 20260507121905 | 8 | 30 | 11.3 | 19.3 | 0.00 | 0.94 | 0.00 | 1 | 1004.5 |
| 20260507120352 | 8 | 327 | 6.4 | 12.9 | 0.00 | 0.94 | 0.00 | 1 | 1004.7 |
| 20260507114856 | 8 | 324 | 6.4 | 14.5 | 0.00 | 0.94 | 0.00 | 1 | 1004.9 |
| 20260507113357 | 8 | 315 | 6.4 | 14.5 | 0.00 | 0.94 | 0.00 | 1 | 1004.7 |
| 20260507111845 | 8 | 33 | 6.4 | 12.9 | 0.00 | 0.94 | 0.00 | 1 | 1004.0 |
| 20260507110349 | 8 | 337 | 9.7 | 20.9 | 0.00 | 0.94 | 0.94 | 1 | 1004.2 |
| 20260507104912 | 8 | 273 | 9.7 | 16.1 | 0.00 | 0.94 | 0.94 | 1 | 1003.7 |
| 20260507103358 | 8 | 331 | 11.3 | 16.1 | 0.00 | 0.94 | 0.94 | 1 | 1003.7 |
| 20260507101841 | 9 | 355 | 6.4 | 16.1 | 0.00 | 0.94 | 0.94 | 1 | 1003.8 |
| 20260507100405 | 8 | 327 | 4.8 | 12.9 | 0.00 | 0.94 | 0.94 | 1 | 1004.1 |
| 20260507094848 | 8 | 5 | 9.7 | 27.4 | 0.00 | 0.94 | 0.94 | 1 | 1003.8 |
| 20260507093355 | 8 | 9 | 8.0 | 17.7 | 0.00 | 0.94 | 0.94 | 1 | 1003.0 |
| 20260507091859 | 9 | 342 | 9.7 | 20.9 | 0.00 | 0.94 | 0.94 | 1 | 1003.3 |
| 20260507090404 | 9 | 338 | 8.0 | 22.5 | 0.03 | 0.94 | 0.94 | 1 | 1003.4 |
| 20260507084910 | 9 | 18 | 11.3 | 20.9 | 0.03 | 0.94 | 0.94 | 1 | 1003.2 |
| 20260507083353 | 10 | 360 | 6.4 | 19.3 | 0.05 | 0.94 | 0.94 | 1 | 1003.0 |
| 20260507081920 | 10 | 341 | 8.0 | 16.1 | 0.18 | 0.94 | 0.94 | 1 | 1003.0 |
| 20260507080349 | 9 | 294 | 6.4 | 14.5 | 0.30 | 0.91 | 0.91 | 1 | 1002.8 |
| 20260507074853 | 9 | 275 | 3.2 | 17.7 | 0.43 | 0.91 | 0.91 | 1 | 1002.5 |
| 20260507073356 | 9 | 254 | 3.2 | 11.3 | 0.41 | 0.89 | 0.89 | 1 | 1001.8 |
| 20260507071844 | 9 | 240 | 4.8 | 17.7 | 0.28 | 0.76 | 0.76 | 1 | 1002.2 |
| 20260507070346 | 9 | 282 | 6.4 | 19.3 | 0.13 | 0.61 | 0.61 | 1 | 1003.2 |
| 20260507064850 | 10 | 259 | 9.7 | 22.5 | 0.03 | 0.48 | 0.48 | 1 | 1002.8 |
| 20260507063354 | 10 | 257 | 11.3 | 22.5 | 0.03 | 0.48 | 0.48 | 1 | 1002.5 |
| 20260507061841 | 10 | 214 | 9.7 | 25.7 | 0.05 | 0.48 | 0.48 | 1 | 1002.7 |
| 20260507060345 | 10 | 217 | 14.5 | 22.5 | 0.08 | 0.48 | 0.48 | 1 | 1003.0 |
| 20260507054848 | 10 | 225 | 12.9 | 24.1 | 0.05 | 0.46 | 0.46 | 1 | 1002.7 |
| 20260507053416 | 10 | 195 | 12.9 | 25.7 | 0.05 | 0.46 | 0.46 | 1 | 1002.8 |
| 20260507051917 | 10 | 233 | 14.5 | 30.6 | 0.03 | 0.43 | 0.43 | 1 | 1003.2 |
| 20260507050359 | 10 | 221 | 12.9 | 27.4 | 0.05 | 0.41 | 0.41 | 1 | 1003.4 |
| 20260507044847 | 10 | 238 | 14.5 | 32.2 | 0.08 | 0.41 | 0.41 | 1 | 1003.6 |
| 20260507043353 | 10 | 207 | 16.1 | 32.2 | 0.13 | 0.41 | 0.41 | 1 | 1003.9 |
| 20260507041918 | 10 | 244 | 17.7 | 30.6 | 0.18 | 0.41 | 0.41 | 1 | 1004.1 |
| 20260507040346 | 10 | 232 | 16.1 | 35.4 | 0.15 | 0.36 | 0.36 | 1 | 1004.1 |
| 20260507034850 | 10 | 217 | 20.9 | 41.8 | 0.18 | 0.33 | 0.33 | 1 | 1004.3 |
| 20260507033354 | 11 | 246 | 27.4 | 40.2 | 0.20 | 0.28 | 0.28 | 1 | 1004.4 |
| 20260507031840 | 11 | 229 | 16.1 | 46.7 | 0.18 | 0.23 | 0.23 | 1 | 1004.5 |
| 20260507030344 | 11 | 205 | 19.3 | 35.4 | 0.18 | 0.20 | 0.20 | 1 | 1004.9 |
| 20260507024847 | 11 | 223 | 22.5 | 35.4 | 0.13 | 0.15 | 0.15 | 1 | 1005.4 |
| 20260507023352 | 11 | 209 | 11.3 | 35.4 | 0.08 | 0.08 | 0.08 | 1 | 1006.1 |
| 20260507021841 | 11 | 231 | 19.3 | 46.7 | 0.05 | 0.05 | 0.05 | 1 | 1006.4 |
| 20260507020345 | 11 | 231 | 22.5 | 40.2 | 0.03 | 0.03 | 0.03 | 1 | 1006.7 |
| 20260507014850 | 11 | 229 | 19.3 | 30.6 | 0.03 | 0.03 | 0.03 | 1 | 1007.1 |
| 20260507013356 | 11 | 223 | 16.1 | 41.8 | 0.00 | 0.00 | 0.00 | 1 | 1007.2 |
| 20260507011840 | 11 | 208 | 12.9 | 30.6 | 0.00 | 0.00 | 0.00 | 1 | 1007.7 |
| 20260507010345 | 11 | 224 | 16.1 | 33.8 | 0.00 | 0.00 | 0.00 | 1 | 1007.9 |
| 20260507004852 | 11 | 213 | 22.5 | 40.2 | 0.00 | 0.00 | 0.00 | 1 | 1008.2 |
| 20260507003355 | 11 | 221 | 14.5 | 32.2 | 0.00 | 0.00 | 0.00 | 1 | 1008.2 |
| 20260507001841 | 11 | 254 | 16.1 | 33.8 | 0.00 | 0.00 | 0.00 | 6 | 1008.2 |
| 20260507000350 | 11 | 238 | 12.9 | 22.5 | 0.00 | 0.00 | 0.00 | 6 | 1008.3 |
| 20260506234854 | 11 | 213 | 14.5 | 35.4 | 0.00 | 0.00 | 0.00 | 12 | 1008.7 |
| 20260506233357 | 11 | 215 | 17.7 | 37.0 | 0.00 | 0.00 | 0.00 | 17 | 1009.2 |
| 20260506231845 | 12 | 209 | 14.5 | 32.2 | 0.00 | 0.00 | 0.00 | 22 | 1008.9 |
| 20260506230349 | 12 | 228 | 19.3 | 38.6 | 0.00 | 0.00 | 0.00 | 24 | 1009.3 |
| 20260506224853 | 12 | 194 | 16.1 | 40.2 | 0.00 | 0.00 | 0.00 | 26 | 1009.4 |
| 20260506223342 | 12 | 238 | 19.3 | 35.4 | 0.00 | 0.00 | 0.00 | 25 | 1009.2 |
| 20260506221847 | 12 | 227 | 17.7 | 32.2 | 0.00 | 0.00 | 0.00 | 22 | 1009.2 |
| 20260506220352 | 12 | 220 | 12.9 | 32.2 | 0.00 | 0.00 | 0.00 | 25 | 1009.2 |
| 20260506214839 | 12 | 226 | 16.1 | 37.0 | 0.00 | 0.00 | 0.00 | 27 | 1009.5 |
| 20260506213404 | 12 | 220 | 16.1 | 38.6 | 0.00 | 0.00 | 0.00 | 27 | 1009.7 |
| 20260506211847 | 12 | 238 | 11.3 | 29.0 | 0.00 | 0.00 | 0.00 | 27 | 1009.2 |
| 20260506210354 | 12 | 217 | 14.5 | 32.2 | 0.00 | 0.00 | 0.00 | 28 | 1009.3 |
| 20260506204839 | 12 | 246 | 12.9 | 25.7 | 0.00 | 0.00 | 0.00 | 28 | 1009.3 |
| 20260506203403 | 12 | 232 | 16.1 | 33.8 | 0.00 | 0.00 | 0.00 | 30 | 1009.3 |
| 20260506201845 | 12 | 217 | 16.1 | 29.0 | 0.00 | 0.00 | 0.00 | 31 | 1009.5 |
| 20260506200353 | 12 | 255 | 20.9 | 32.2 | 0.00 | 0.00 | 0.00 | 34 | 1009.7 |
| 20260506194858 | 12 | 268 | 20.9 | 46.7 | 0.00 | 0.00 | 0.00 | 34 | 1009.7 |
| 20260506193340 | 12 | 230 | 17.7 | 40.2 | 0.00 | 0.00 | 0.00 | 37 | 1009.5 |
| 20260506191847 | 12 | 223 | 17.7 | 35.4 | 0.00 | 0.00 | 0.00 | 35 | 1009.6 |
| 20260506190348 | 12 | 217 | 20.9 | 38.6 | 0.00 | 0.00 | 0.00 | 35 | 1009.7 |
| 20260506184849 | 12 | 211 | 22.5 | 32.2 | 0.00 | 0.00 | 0.00 | 31 | 1009.8 |
| 20260506183355 | 12 | 225 | 19.3 | 37.0 | 0.00 | 0.00 | 0.00 | 31 | 1009.8 |
| 20260506181856 | 12 | 207 | 19.3 | 37.0 | 0.00 | 0.00 | 0.00 | 32 | 1009.9 |
| 20260506180359 | 12 | 239 | 20.9 | 38.6 | 0.00 | 0.00 | 0.00 | 33 | 1010.0 |
| 20260506174904 | 12 | 229 | 22.5 | 38.6 | 0.00 | 0.00 | 0.00 | 31 | 1010.1 |